Time;durP1;ratioP1;P1;durP2;ratioP2;P2;SDS_P1;SDS_P2;PMS_P1;PMS_P2;Temp;Humidity;BMP_temperature;BMP_pressure;BME280_temperature;BME280_humidity;BME280_pressure;Samples;Min_cycle;Max_cycle;Signal;HPM_P1;HPM_P2
2024/01/28 00:01:51;;;;;;;0.98;0.57;;;;;;;3.67;71.71;95588.44;5039948;28;20661;-76
2024/01/28 00:04:18;;;;;;;0.20;0.20;;;;;;;3.55;71.67;95583.25;5043200;28;20234;-75
2024/01/28 00:06:45;;;;;;;0.20;0.20;;;;;;;3.55;71.66;95596.66;5042061;28;20216;-74
2024/01/28 00:09:13;;;;;;;0.20;0.20;;;;;;;3.79;72.18;95593.59;5040411;28;20274;-74
2024/01/28 00:11:42;;;;;;;0.20;0.20;;;;;;;3.46;71.84;95584.81;5042226;28;20267;-76
2024/01/28 00:14:10;;;;;;;0.20;0.20;;;;;;;3.48;72.38;95592.59;5042469;28;20331;-76
2024/01/28 00:16:37;;;;;;;0.20;0.20;;;;;;;3.34;72.68;95597.59;5040348;28;20204;-75
2024/01/28 00:19:08;;;;;;;0.30;0.30;;;;;;;3.47;71.94;95601.69;5041122;28;20200;-77
2024/01/28 00:21:40;;;;;;;0.40;0.40;;;;;;;3.56;72.76;95600.94;5039722;28;20204;-75
2024/01/28 00:24:07;;;;;;;0.20;0.20;;;;;;;3.66;72.69;95600.22;5039970;28;20207;-76
2024/01/28 00:26:43;;;;;;;0.20;0.20;;;;;;;3.62;72.52;95593.75;5038906;28;20230;-75
2024/01/28 00:29:09;;;;;;;0.20;0.20;;;;;;;3.48;73.13;95606.81;5038839;28;20572;-77
2024/01/28 00:31:36;;;;;;;0.20;0.20;;;;;;;3.42;73.57;95613.19;5043637;28;20199;-76
2024/01/28 00:34:03;;;;;;;0.20;0.20;;;;;;;3.49;73.45;95610.28;5044642;28;20310;-75
2024/01/28 00:36:30;;;;;;;0.20;0.20;;;;;;;3.54;72.67;95613.00;5043662;28;20689;-76
2024/01/28 00:38:57;;;;;;;0.20;0.20;;;;;;;3.28;73.59;95617.38;5045188;28;20532;-75
2024/01/28 00:41:26;;;;;;;0.20;0.20;;;;;;;3.23;74.04;95622.72;5046366;28;20218;-75
2024/01/28 00:43:56;;;;;;;0.20;0.20;;;;;;;3.44;73.13;95619.09;5044585;28;20615;-74
2024/01/28 00:46:23;;;;;;;0.20;0.20;;;;;;;3.34;74.03;95621.72;5042185;28;20227;-75
2024/01/28 00:48:53;;;;;;;0.22;0.20;;;;;;;3.26;74.73;95622.19;5044942;28;20212;-75
2024/01/28 00:51:20;;;;;;;0.10;0.10;;;;;;;3.40;74.12;95623.38;5046007;28;20200;-75
2024/01/28 00:53:49;;;;;;;0.63;0.63;;;;;;;3.47;74.04;95618.59;5043147;28;20204;-76
2024/01/28 00:56:17;;;;;;;0.20;0.20;;;;;;;3.39;74.24;95624.44;5040220;28;20204;-74
2024/01/28 00:58:44;;;;;;;0.20;0.20;;;;;;;3.48;74.44;95620.19;5043973;28;20208;-76
2024/01/28 01:01:13;;;;;;;0.20;0.20;;;;;;;3.51;74.56;95619.69;5044728;28;20203;-75
2024/01/28 01:03:42;;;;;;;0.20;0.20;;;;;;;3.35;74.73;95631.34;5040455;28;20287;-76
2024/01/28 01:06:09;;;;;;;0.20;0.20;;;;;;;3.21;74.96;95622.97;5044738;28;20234;-76
2024/01/28 01:08:35;;;;;;;0.20;0.20;;;;;;;3.27;75.07;95634.53;5044394;28;20219;-75
2024/01/28 01:11:05;;;;;;;0.32;0.32;;;;;;;3.33;75.30;95632.66;5043817;28;20222;-77
2024/01/28 01:13:32;;;;;;;0.30;0.30;;;;;;;3.33;75.32;95638.84;5045094;28;20295;-75
2024/01/28 01:16:00;;;;;;;0.20;0.20;;;;;;;3.56;75.48;95630.41;5039468;28;20560;-75
2024/01/28 01:18:28;;;;;;;0.20;0.20;;;;;;;3.64;74.10;95634.50;5043075;28;20660;-76
2024/01/28 01:20:55;;;;;;;0.20;0.20;;;;;;;3.41;75.72;95637.56;5044682;28;20204;-74
2024/01/28 01:23:21;;;;;;;0.20;0.20;;;;;;;3.26;75.49;95626.75;5042978;28;20680;-75
2024/01/28 01:25:48;;;;;;;0.50;0.50;;;;;;;3.43;75.41;95622.84;5043789;28;20611;-76
2024/01/28 01:28:17;;;;;;;0.90;0.85;;;;;;;3.27;75.93;95626.50;5041923;28;20195;-75
2024/01/28 01:30:44;;;;;;;2.28;1.10;;;;;;;3.33;76.21;95628.13;5040934;28;20200;-76
2024/01/28 01:33:11;;;;;;;0.60;0.60;;;;;;;3.14;76.97;95634.97;5045316;28;20231;-76
2024/01/28 01:35:39;;;;;;;0.50;0.50;;;;;;;3.33;76.45;95617.41;5044005;28;20208;-76
2024/01/28 01:38:06;;;;;;;0.60;0.60;;;;;;;3.24;76.33;95621.66;5044282;28;20211;-76
2024/01/28 01:40:32;;;;;;;0.95;0.70;;;;;;;3.19;77.00;95618.91;5040672;28;20546;-75
2024/01/28 01:43:00;;;;;;;0.98;0.63;;;;;;;3.08;77.02;95626.06;5041648;28;20203;-76
2024/01/28 01:45:26;;;;;;;0.50;0.50;;;;;;;3.12;77.30;95621.03;5041984;28;20204;-76
2024/01/28 01:47:53;;;;;;;6.93;1.27;;;;;;;3.18;77.01;95619.97;5043618;28;20231;-75
2024/01/28 01:50:23;;;;;;;2.63;1.10;;;;;;;3.02;77.44;95612.88;5042853;28;20568;-77
2024/01/28 01:52:54;;;;;;;1.67;0.77;;;;;;;3.29;77.56;95616.31;5043810;28;20212;-76
2024/01/28 01:55:20;;;;;;;0.35;0.35;;;;;;;3.04;77.42;95624.16;5038552;28;20205;-75
2024/01/28 01:57:47;;;;;;;0.68;0.68;;;;;;;3.01;77.93;95625.47;5040048;28;20253;-75
2024/01/28 02:00:15;;;;;;;0.30;0.30;;;;;;;2.98;77.74;95627.88;5043473;28;20287;-75
2024/01/28 02:02:45;;;;;;;0.22;0.22;;;;;;;2.91;78.29;95627.25;5039731;28;20542;-75
2024/01/28 02:05:12;;;;;;;1.17;1.08;;;;;;;2.96;78.00;95633.47;5041774;28;20616;-77
2024/01/28 02:07:39;;;;;;;0.22;0.17;;;;;;;2.95;77.82;95623.03;5044133;28;20224;-75
2024/01/28 02:10:09;;;;;;;0.20;0.20;;;;;;;2.95;78.41;95633.72;5043558;28;20211;-75
2024/01/28 02:12:37;;;;;;;0.50;0.50;;;;;;;2.96;77.69;95621.97;5043551;28;20227;-75
2024/01/28 02:15:05;;;;;;;0.20;0.20;;;;;;;3.07;78.29;95629.00;5044906;28;20204;-76
2024/01/28 02:17:32;;;;;;;0.20;0.20;;;;;;;2.93;78.45;95643.88;5043574;28;20223;-76
2024/01/28 02:19:59;;;;;;;0.20;0.20;;;;;;;2.93;77.74;95638.50;5043441;28;20207;-76
2024/01/28 02:22:29;;;;;;;0.20;0.20;;;;;;;3.01;78.00;95636.16;5043673;28;20211;-75
2024/01/28 02:24:58;;;;;;;0.20;0.20;;;;;;;3.02;77.89;95637.78;5046436;28;20207;-75
2024/01/28 02:27:25;;;;;;;0.20;0.20;;;;;;;2.98;78.27;95639.38;5042922;28;20314;-76
2024/01/28 02:29:52;;;;;;;0.32;0.32;;;;;;;2.99;77.30;95642.88;5042668;28;20200;-75
2024/01/28 02:32:19;;;;;;;0.20;0.20;;;;;;;2.94;78.01;95656.19;5043782;28;20204;-75
2024/01/28 02:34:46;;;;;;;0.20;0.20;;;;;;;2.84;78.31;95652.38;5044127;28;20608;-75
2024/01/28 02:37:13;;;;;;;0.28;0.28;;;;;;;2.83;78.59;95656.09;5043032;28;20192;-75
2024/01/28 02:39:40;;;;;;;0.10;0.10;;;;;;;2.89;78.09;95654.25;5044110;28;20607;-75
2024/01/28 02:42:09;;;;;;;0.10;0.10;;;;;;;2.93;78.14;95655.38;5042373;28;20572;-75
2024/01/28 02:44:36;;;;;;;0.38;0.38;;;;;;;3.03;77.82;95654.66;5044880;28;20236;-76
2024/01/28 02:47:02;;;;;;;0.90;0.85;;;;;;;3.00;77.63;95655.19;5040409;28;20224;-76
2024/01/28 02:49:29;;;;;;;0.20;0.20;;;;;;;2.80;78.10;95651.25;5041424;28;20202;-75
2024/01/28 02:51:56;;;;;;;0.40;0.40;;;;;;;2.90;78.07;95671.13;5045429;28;20205;-75
2024/01/28 02:54:24;;;;;;;0.20;0.20;;;;;;;2.96;78.22;95664.78;5041683;28;20199;-76
2024/01/28 02:56:51;;;;;;;0.20;0.20;;;;;;;3.12;77.74;95669.19;5041633;28;20246;-77
2024/01/28 02:59:20;;;;;;;0.20;0.20;;;;;;;3.06;77.59;95675.56;5043066;28;20582;-77
2024/01/28 03:01:47;;;;;;;1.10;0.82;;;;;;;2.89;78.21;95674.84;5041370;28;20490;-76
2024/01/28 03:04:14;;;;;;;0.20;0.20;;;;;;;2.90;78.35;95665.78;5043135;28;20196;-76
2024/01/28 03:06:42;;;;;;;0.20;0.20;;;;;;;2.99;77.93;95674.97;5042899;28;20224;-75
2024/01/28 03:09:09;;;;;;;0.20;0.20;;;;;;;2.96;78.58;95686.19;5043528;28;20300;-75
2024/01/28 03:11:39;;;;;;;0.20;0.20;;;;;;;2.92;77.92;95685.06;5041729;28;20603;-75
2024/01/28 03:14:07;;;;;;;0.20;0.20;;;;;;;2.76;78.84;95678.75;5040806;28;20609;-75
2024/01/28 03:16:37;;;;;;;0.50;0.50;;;;;;;2.84;78.71;95689.81;5042447;28;20236;-75
2024/01/28 03:19:04;;;;;;;0.20;0.20;;;;;;;2.97;78.83;95702.00;5037157;28;20234;-75
2024/01/28 03:21:31;;;;;;;0.20;0.20;;;;;;;2.93;77.96;95692.03;5040906;28;20279;-74
2024/01/28 03:23:58;;;;;;;0.90;0.85;;;;;;;2.78;78.49;95701.53;5042010;28;20392;-75
2024/01/28 03:26:25;;;;;;;0.20;0.20;;;;;;;2.79;78.94;95708.50;5039733;28;20204;-75
2024/01/28 03:28:51;;;;;;;0.75;0.75;;;;;;;2.73;79.31;95704.13;5043399;28;20223;-74
2024/01/28 03:31:19;;;;;;;0.20;0.20;;;;;;;2.69;79.50;95713.75;5039216;28;20207;-75
2024/01/28 03:33:50;;;;;;;0.28;0.28;;;;;;;2.79;79.55;95703.13;5040492;28;20589;-76
2024/01/28 03:36:20;;;;;;;0.50;0.50;;;;;;;2.84;79.23;95710.41;5040431;28;20205;-75
2024/01/28 03:38:47;;;;;;;0.30;0.30;;;;;;;2.56;80.54;95703.44;5038767;28;20227;-75
2024/01/28 03:41:15;;;;;;;0.20;0.20;;;;;;;2.57;80.39;95699.72;5043000;28;20209;-75
2024/01/28 03:43:42;;;;;;;0.20;0.20;;;;;;;2.65;79.85;95701.13;5042357;28;20200;-74
2024/01/28 03:46:09;;;;;;;0.50;0.50;;;;;;;2.55;80.23;95707.16;5041127;28;20200;-75
2024/01/28 03:48:36;;;;;;;0.30;0.30;;;;;;;2.55;80.08;95701.81;5043238;28;20220;-75
2024/01/28 03:51:04;;;;;;;0.20;0.20;;;;;;;2.60;80.78;95693.84;5041891;28;20204;-77
2024/01/28 03:53:31;;;;;;;0.20;0.20;;;;;;;2.53;80.38;95709.28;5040943;28;20590;-75
2024/01/28 03:55:58;;;;;;;0.30;0.30;;;;;;;2.57;80.95;95699.72;5043510;28;20595;-75
2024/01/28 03:58:26;;;;;;;1.23;0.80;;;;;;;2.41;80.82;95700.59;5041726;28;20688;-75
2024/01/28 04:00:53;;;;;;;1.10;1.00;;;;;;;2.38;80.44;95706.44;5042790;28;20199;-75
2024/01/28 04:03:20;;;;;;;0.68;0.60;;;;;;;2.39;80.93;95710.72;5043633;28;20201;-75
2024/01/28 04:05:46;;;;;;;0.52;0.52;;;;;;;2.30;81.31;95720.25;5044638;28;20227;-75
2024/01/28 04:08:15;;;;;;;0.68;0.68;;;;;;;2.45;81.34;95728.44;5046006;28;20612;-76
2024/01/28 04:10:42;;;;;;;1.17;1.10;;;;;;;2.23;81.89;95725.75;5059215;28;20337;-76
2024/01/28 04:13:09;;;;;;;0.20;0.20;;;;;;;2.04;82.23;95727.94;5044683;28;20207;-75
2024/01/28 04:15:36;;;;;;;0.20;0.20;;;;;;;2.12;82.24;95738.19;5046650;28;20214;-76
2024/01/28 04:18:02;;;;;;;0.52;0.52;;;;;;;2.12;82.00;95735.50;5046190;28;20652;-76
2024/01/28 04:20:29;;;;;;;0.20;0.20;;;;;;;2.16;82.69;95745.72;5045754;28;20619;-77
2024/01/28 04:22:56;;;;;;;0.20;0.20;;;;;;;2.13;82.08;95755.03;5059429;28;20366;-77
2024/01/28 04:25:24;;;;;;;0.20;0.20;;;;;;;2.17;82.13;95752.69;5045627;28;20656;-77
2024/01/28 04:27:51;;;;;;;0.20;0.20;;;;;;;2.17;82.09;95758.84;5045202;28;20220;-77
2024/01/28 04:30:18;;;;;;;0.20;0.20;;;;;;;1.97;82.66;95745.19;5046423;28;20207;-76
2024/01/28 04:32:45;;;;;;;0.28;0.28;;;;;;;1.75;83.37;95761.16;5046003;28;20215;-75
2024/01/28 04:35:13;;;;;;;0.20;0.20;;;;;;;1.70;83.76;95763.75;5044600;28;20245;-74
2024/01/28 04:37:40;;;;;;;0.20;0.20;;;;;;;1.78;85.06;95771.34;5044775;28;20211;-74
2024/01/28 04:40:08;;;;;;;0.20;0.20;;;;;;;1.88;84.56;95776.84;5045561;28;20203;-75
2024/01/28 04:42:36;;;;;;;0.30;0.30;;;;;;;1.83;83.90;95778.63;5044649;28;20266;-76
2024/01/28 04:45:04;;;;;;;0.20;0.20;;;;;;;1.62;84.87;95778.34;5047068;28;20565;-77
2024/01/28 04:47:30;;;;;;;1.23;0.93;;;;;;;1.69;84.32;95772.81;5046017;28;20294;-75
2024/01/28 04:49:57;;;;;;;2.95;1.50;;;;;;;1.64;84.58;95775.41;5044866;28;20684;-75
2024/01/28 04:52:24;;;;;;;0.75;0.75;;;;;;;1.59;84.32;95773.47;5044120;28;20583;-76
2024/01/28 04:54:51;;;;;;;1.48;0.90;;;;;;;1.55;84.39;95776.84;5045964;28;20208;-77
2024/01/28 04:57:18;;;;;;;2.22;0.95;;;;;;;1.69;83.98;95773.63;5043650;28;20289;-76
2024/01/28 04:59:46;;;;;;;0.60;0.60;;;;;;;1.82;84.48;95777.81;5046760;28;20212;-76
2024/01/28 05:02:12;;;;;;;1.38;0.80;;;;;;;1.60;83.99;95774.28;5045146;28;20210;-77
2024/01/28 05:04:39;;;;;;;0.40;0.40;;;;;;;1.60;84.54;95774.28;5044197;28;20211;-77
2024/01/28 05:07:06;;;;;;;1.10;1.00;;;;;;;1.48;84.63;95762.88;5044291;28;20208;-77
2024/01/28 05:09:33;;;;;;;2.20;0.90;;;;;;;1.58;84.32;95771.03;5041636;28;20204;-75
2024/01/28 05:12:00;;;;;;;1.60;1.02;;;;;;;1.65;84.11;95782.34;5044818;28;20248;-75
2024/01/28 05:14:27;;;;;;;0.73;0.73;;;;;;;1.46;83.72;95772.97;5043112;28;20238;-74
2024/01/28 05:16:55;;;;;;;1.75;0.95;;;;;;;1.53;83.86;95768.28;5045160;28;20211;-75
2024/01/28 05:19:22;;;;;;;0.70;0.70;;;;;;;1.43;84.71;95791.09;5041436;28;20200;-75
2024/01/28 05:21:48;;;;;;;0.65;0.65;;;;;;;1.43;84.13;95787.63;5046219;28;20594;-75
2024/01/28 05:24:15;;;;;;;1.50;0.52;;;;;;;1.47;83.97;95790.63;5042426;28;20556;-76
2024/01/28 05:26:42;;;;;;;0.63;0.50;;;;;;;1.37;84.50;95797.38;5045489;28;20541;-75
2024/01/28 05:29:09;;;;;;;6.45;0.68;;;;;;;1.43;84.27;95790.28;5043538;28;20627;-76
2024/01/28 05:31:36;;;;;;;1.15;0.80;;;;;;;1.57;83.83;95790.78;5042677;28;20206;-77
2024/01/28 05:34:04;;;;;;;0.50;0.50;;;;;;;2.85;95.35;95786.97;5043719;28;20228;-75
2024/01/28 05:36:31;;;;;;;0.82;0.52;;;;;;;3.31;93.00;95795.47;5044607;28;20273;-74
2024/01/28 05:38:58;;;;;;;0.95;0.70;;;;;;;3.12;89.72;95798.50;5041560;28;20196;-74
2024/01/28 05:41:25;;;;;;;0.63;0.63;;;;;;;4.29;99.41;95797.59;5045598;28;20228;-74
2024/01/28 05:43:52;;;;;;;0.60;0.60;;;;;;;3.31;82.46;95806.97;5038811;28;20215;-75
2024/01/28 05:46:19;;;;;;;2.97;1.50;;;;;;;2.09;82.33;95810.81;5042623;28;20204;-75
2024/01/28 05:48:47;;;;;;;2.72;0.55;;;;;;;1.83;82.75;95822.19;5044039;28;20308;-74
2024/01/28 05:51:15;;;;;;;1.65;1.02;;;;;;;1.57;83.85;95822.81;5045495;28;20204;-76
2024/01/28 05:53:42;;;;;;;1.75;0.95;;;;;;;1.57;84.14;95828.97;5041475;28;20211;-76
2024/01/28 05:56:09;;;;;;;0.50;0.50;;;;;;;1.38;84.73;95833.72;5043613;28;20566;-75
2024/01/28 05:58:36;;;;;;;0.73;0.73;;;;;;;1.49;84.48;95832.06;5042274;28;20192;-75
2024/01/28 06:01:06;;;;;;;2.58;0.95;;;;;;;1.31;85.04;95814.38;5042963;28;20203;-77
2024/01/28 06:03:33;;;;;;;0.60;0.60;;;;;;;1.61;84.67;95830.13;5038772;28;20203;-75
2024/01/28 06:06:01;;;;;;;0.47;0.47;;;;;;;1.55;84.46;95819.56;5042776;28;20212;-76
2024/01/28 06:08:29;;;;;;;0.20;0.20;;;;;;;1.66;84.62;95832.03;5044136;28;20314;-75
2024/01/28 06:10:56;;;;;;;0.20;0.20;;;;;;;1.66;83.88;95835.53;5039742;28;20716;-76
2024/01/28 06:13:23;;;;;;;0.20;0.20;;;;;;;1.77;83.88;95831.19;5042699;28;20283;-76
2024/01/28 06:15:51;;;;;;;0.30;0.30;;;;;;;2.26;82.56;95836.72;5044445;28;20207;-75
2024/01/28 06:18:19;;;;;;;0.20;0.20;;;;;;;2.66;80.74;95837.28;5037927;28;20282;-75
2024/01/28 06:20:46;;;;;;;0.20;0.20;;;;;;;2.83;79.44;95839.91;5040681;28;20210;-75
2024/01/28 06:23:12;;;;;;;0.20;0.20;;;;;;;2.82;78.86;95843.66;5041903;28;20204;-76
2024/01/28 06:25:41;;;;;;;0.20;0.20;;;;;;;2.81;80.03;95853.53;5042558;28;20211;-76
2024/01/28 06:28:07;;;;;;;0.20;0.20;;;;;;;2.82;79.42;95847.13;5040014;28;20220;-76
2024/01/28 06:30:35;;;;;;;0.20;0.20;;;;;;;2.77;79.39;95849.72;5038247;28;20196;-76
2024/01/28 06:33:02;;;;;;;0.20;0.20;;;;;;;2.53;80.50;95859.03;5042712;28;20232;-76
2024/01/28 06:35:29;;;;;;;0.20;0.20;;;;;;;2.45;80.60;95856.81;5043403;28;20323;-75
2024/01/28 06:37:56;;;;;;;0.20;0.20;;;;;;;2.65;80.84;95856.25;5042655;28;20696;-75
2024/01/28 06:40:23;;;;;;;0.20;0.20;;;;;;;2.73;80.37;95858.53;5040453;28;20635;-76
2024/01/28 06:42:51;;;;;;;0.20;0.20;;;;;;;2.63;80.49;95864.53;5043626;28;20286;-75
2024/01/28 06:45:19;;;;;;;0.20;0.20;;;;;;;2.39;81.82;95868.47;5042894;28;20200;-75
2024/01/28 06:47:47;;;;;;;0.20;0.20;;;;;;;2.54;81.40;95871.34;5041169;28;20543;-76
2024/01/28 06:50:13;;;;;;;0.20;0.20;;;;;;;2.33;81.31;95859.53;5042712;28;20227;-75
2024/01/28 06:52:40;;;;;;;0.20;0.20;;;;;;;2.60;81.22;95869.56;5042095;28;20298;-75
2024/01/28 06:55:08;;;;;;;0.43;0.43;;;;;;;2.52;80.91;95875.34;5039660;28;20615;-73
2024/01/28 06:57:41;;;;;;;0.20;0.20;;;;;;;2.88;80.07;95871.25;5038151;28;20207;-76
2024/01/28 07:00:13;;;;;;;0.20;0.20;;;;;;;2.84;79.91;95877.13;5037625;28;20657;-75
2024/01/28 07:02:41;;;;;;;0.25;0.25;;;;;;;2.78;79.66;95867.41;5038316;28;20216;-76
2024/01/28 07:05:11;;;;;;;0.77;0.77;;;;;;;2.71;79.21;95877.50;5031396;28;20789;-75
2024/01/28 07:07:39;;;;;;;0.28;0.28;;;;;;;2.81;79.35;95872.25;5030741;28;20299;-76
2024/01/28 07:10:08;;;;;;;1.10;1.00;;;;;;;2.64;80.20;95871.50;5032893;28;20227;-75
2024/01/28 07:12:35;;;;;;;0.20;0.20;;;;;;;2.79;79.05;95871.69;5030549;28;20250;-76
2024/01/28 07:15:02;;;;;;;0.30;0.30;;;;;;;2.72;79.64;95878.31;5032266;28;20201;-75
2024/01/28 07:17:30;;;;;;;0.20;0.20;;;;;;;2.46;80.90;95885.16;5031230;28;20200;-75
2024/01/28 07:19:58;;;;;;;0.20;0.20;;;;;;;2.48;80.86;95886.50;5030763;28;20208;-76
2024/01/28 07:22:25;;;;;;;0.20;0.20;;;;;;;2.54;79.93;95879.38;5030753;28;20205;-77
2024/01/28 07:24:52;;;;;;;0.20;0.20;;;;;;;2.77;79.92;95883.69;5032495;28;20691;-75
2024/01/28 07:27:19;;;;;;;0.20;0.20;;;;;;;2.76;79.59;95885.56;5030885;28;20204;-75
2024/01/28 07:29:45;;;;;;;0.22;0.22;;;;;;;2.72;79.38;95887.13;5031342;28;20223;-74
2024/01/28 07:32:13;;;;;;;0.20;0.20;;;;;;;2.80;79.19;95885.88;5030334;28;20575;-76
2024/01/28 07:34:41;;;;;;;0.30;0.30;;;;;;;2.93;78.38;95884.72;5030835;28;20293;-75
2024/01/28 07:37:08;;;;;;;0.30;0.30;;;;;;;2.66;79.19;95893.47;5032358;28;20246;-75
2024/01/28 07:39:35;;;;;;;0.43;0.43;;;;;;;2.74;79.24;95893.03;5030626;28;20204;-75
2024/01/28 07:42:02;;;;;;;0.30;0.30;;;;;;;2.94;78.35;95894.38;5030470;28;20270;-74
2024/01/28 07:44:32;;;;;;;0.20;0.20;;;;;;;3.26;77.63;95895.31;5033236;28;20568;-75
2024/01/28 07:46:59;;;;;;;0.30;0.30;;;;;;;2.82;78.91;95892.63;5029901;28;20208;-75
2024/01/28 07:49:28;;;;;;;0.30;0.30;;;;;;;3.02;79.25;95899.28;5029677;28;20641;-75
2024/01/28 07:51:56;;;;;;;11.40;1.20;;;;;;;3.44;78.22;95897.63;5030738;28;20212;-74
2024/01/28 07:54:22;;;;;;;0.20;0.20;;;;;;;3.07;78.18;95902.03;5027377;28;20274;-75
2024/01/28 07:56:50;;;;;;;0.30;0.30;;;;;;;3.23;78.77;95906.50;5030547;28;20208;-73
2024/01/28 07:59:17;;;;;;;0.20;0.20;;;;;;;3.65;76.56;95903.22;5027952;28;20223;-76
2024/01/28 08:01:44;;;;;;;0.20;0.20;;;;;;;3.23;77.71;95895.81;5031188;28;20204;-75
2024/01/28 08:04:11;;;;;;;0.20;0.20;;;;;;;3.51;77.20;95890.22;5030166;28;20193;-74
2024/01/28 08:06:37;;;;;;;0.20;0.20;;;;;;;3.72;75.69;95888.53;5030503;28;20258;-74
2024/01/28 08:09:06;;;;;;;0.20;0.20;;;;;;;3.73;75.93;95897.41;5030979;28;20224;-74
2024/01/28 08:11:33;;;;;;;0.20;0.20;;;;;;;3.79;75.76;95904.44;5030132;28;20244;-74
2024/01/28 08:14:00;;;;;;;0.55;0.55;;;;;;;4.13;75.02;95903.13;5029502;28;20204;-75
2024/01/28 08:16:29;;;;;;;0.40;0.40;;;;;;;3.66;76.09;95894.94;5029490;28;20216;-74
2024/01/28 08:18:57;;;;;;;0.20;0.20;;;;;;;3.76;76.04;95908.44;5030184;28;20283;-74
2024/01/28 08:21:24;;;;;;;0.20;0.20;;;;;;;3.75;76.25;95909.50;5030826;28;20208;-75
2024/01/28 08:23:50;;;;;;;0.20;0.20;;;;;;;3.63;76.78;95899.97;5030520;28;20200;-74
2024/01/28 08:26:19;;;;;;;0.20;0.20;;;;;;;3.53;77.44;95914.91;5030131;28;20211;-74
2024/01/28 08:28:45;;;;;;;0.30;0.30;;;;;;;3.81;77.12;95908.50;5029599;28;20676;-74
2024/01/28 08:31:12;;;;;;;0.20;0.20;;;;;;;3.91;76.37;95913.94;5029213;28;20231;-73
2024/01/28 08:33:39;;;;;;;0.20;0.20;;;;;;;3.70;76.79;95917.47;5029814;28;20244;-75
2024/01/28 08:36:06;;;;;;;4.30;0.82;;;;;;;3.81;76.56;95913.84;5030425;28;20262;-75
2024/01/28 08:38:34;;;;;;;0.20;0.20;;;;;;;3.79;76.60;95912.47;5030566;28;20250;-74
2024/01/28 08:41:01;;;;;;;0.30;0.30;;;;;;;3.80;76.55;95906.06;5044073;28;20402;-76
2024/01/28 08:43:29;;;;;;;1.20;1.15;;;;;;;3.92;76.81;95920.91;5036532;28;20901;-74
2024/01/28 08:45:56;;;;;;;0.50;0.50;;;;;;;3.72;77.03;95917.22;5032534;28;20572;-75
2024/01/28 08:48:23;;;;;;;0.30;0.30;;;;;;;4.04;75.61;95918.06;5030762;28;20584;-74
2024/01/28 08:50:50;;;;;;;0.28;0.28;;;;;;;4.27;74.86;95923.09;5029414;28;20209;-74
2024/01/28 08:53:16;;;;;;;0.20;0.20;;;;;;;3.96;75.64;95931.16;5033483;28;20208;-75
2024/01/28 08:55:43;;;;;;;0.30;0.30;;;;;;;4.21;75.24;95924.13;5035841;28;20204;-74
2024/01/28 08:58:10;;;;;;;0.20;0.20;;;;;;;4.02;75.04;95930.13;5033405;28;20590;-75
2024/01/28 09:00:40;;;;;;;0.20;0.20;;;;;;;4.36;74.48;95936.06;5033276;28;20199;-74
2024/01/28 09:03:07;;;;;;;0.22;0.22;;;;;;;4.39;74.65;95916.75;5029652;28;20205;-75
2024/01/28 09:05:33;;;;;;;0.20;0.20;;;;;;;4.52;73.63;95935.09;5038587;28;20579;-74
2024/01/28 09:08:02;;;;;;;0.25;0.25;;;;;;;4.25;74.38;95941.31;5044116;28;20199;-75
2024/01/28 09:10:28;;;;;;;3.63;1.27;;;;;;;4.17;74.04;95944.47;5034329;28;20611;-75
2024/01/28 09:12:55;;;;;;;0.20;0.20;;;;;;;4.49;73.57;95936.44;5043381;28;20219;-75
2024/01/28 09:15:23;;;;;;;0.20;0.20;;;;;;;4.55;73.50;95934.56;5037528;28;20200;-76
2024/01/28 09:17:51;;;;;;;0.60;0.60;;;;;;;4.63;73.30;95936.81;5036482;28;20435;-76
2024/01/28 09:20:18;;;;;;;0.20;0.20;;;;;;;4.39;72.93;95940.88;5034827;28;20592;-74
2024/01/28 09:22:45;;;;;;;0.43;0.43;;;;;;;4.69;71.65;95941.13;5035333;28;20207;-75
2024/01/28 09:25:12;;;;;;;0.20;0.20;;;;;;;4.79;71.83;95940.38;5032372;28;20930;-73
2024/01/28 09:27:39;;;;;;;0.20;0.20;;;;;;;4.76;71.56;95940.91;5038492;28;20203;-77
2024/01/28 09:30:07;;;;;;;0.30;0.30;;;;;;;4.78;72.23;95936.91;5050715;28;20249;-75
2024/01/28 09:32:32;;;;;;;0.20;0.20;;;;;;;5.35;71.11;95936.13;5049252;28;20243;-76
2024/01/28 09:35:01;;;;;;;0.20;0.20;;;;;;;5.32;70.62;95929.41;5047681;28;20255;-75
2024/01/28 09:37:27;;;;;;;0.20;0.20;;;;;;;5.09;70.51;95948.63;5034262;28;20569;-77
2024/01/28 09:39:54;;;;;;;0.30;0.30;;;;;;;5.06;70.09;95934.94;5038300;28;20235;-75
2024/01/28 09:42:24;;;;;;;0.20;0.20;;;;;;;5.00;70.67;95934.88;5053181;28;20211;-76
2024/01/28 09:44:51;;;;;;;0.25;0.25;;;;;;;5.11;70.91;95932.25;5051165;28;20290;-75
2024/01/28 09:47:19;;;;;;;0.20;0.20;;;;;;;5.16;70.77;95929.59;5053535;28;20602;-76
2024/01/28 09:49:47;;;;;;;0.20;0.20;;;;;;;5.20;70.12;95927.97;5044311;28;20541;-75
2024/01/28 09:52:16;;;;;;;0.30;0.30;;;;;;;5.07;70.14;95931.94;5047016;28;20676;-75
2024/01/28 09:54:44;;;;;;;0.30;0.30;;;;;;;4.86;70.67;95931.03;5050336;28;20273;-74
2024/01/28 09:57:12;;;;;;;0.20;0.20;;;;;;;5.21;69.90;95932.28;5052637;28;20203;-76
2024/01/28 09:59:39;;;;;;;0.65;0.47;;;;;;;4.91;70.66;95928.41;5051124;28;20215;-75
2024/01/28 10:02:07;;;;;;;0.30;0.30;;;;;;;5.04;71.35;95929.00;5052512;28;20265;-76
2024/01/28 10:04:34;;;;;;;0.20;0.20;;;;;;;5.32;70.00;95917.88;5050454;28;20235;-75
2024/01/28 10:07:02;;;;;;;0.20;0.20;;;;;;;5.11;69.20;95918.81;5051696;28;20246;-75
2024/01/28 10:09:31;;;;;;;0.20;0.20;;;;;;;4.68;71.30;95918.03;5044093;28;20654;-75
2024/01/28 10:11:58;;;;;;;0.43;0.43;;;;;;;4.63;71.37;95928.75;5047789;28;20354;-74
2024/01/28 10:14:25;;;;;;;0.57;0.57;;;;;;;4.74;70.96;95925.06;5044275;28;20668;-75
2024/01/28 10:16:52;;;;;;;0.20;0.20;;;;;;;4.41;72.21;95919.97;5048609;28;20262;-74
2024/01/28 10:19:19;;;;;;;0.35;0.35;;;;;;;4.79;71.51;95925.06;5045127;28;20208;-74
2024/01/28 10:21:46;;;;;;;0.30;0.30;;;;;;;4.97;70.78;95927.34;5049105;28;21291;-74
2024/01/28 10:24:16;;;;;;;0.20;0.20;;;;;;;4.97;69.08;95921.97;5045333;28;20556;-76
2024/01/28 10:26:44;;;;;;;0.20;0.20;;;;;;;4.74;70.85;95922.38;5048482;28;20215;-75
2024/01/28 10:29:13;;;;;;;0.28;0.28;;;;;;;4.64;72.21;95927.69;5045640;28;20260;-76
2024/01/28 10:31:40;;;;;;;0.20;0.20;;;;;;;4.52;73.28;95913.63;5049790;28;20212;-75
2024/01/28 10:34:08;;;;;;;0.28;0.28;;;;;;;4.77;71.56;95921.88;5046031;28;20228;-75
2024/01/28 10:36:36;;;;;;;0.20;0.20;;;;;;;4.93;71.39;95920.06;5048637;28;20211;-74
2024/01/28 10:39:05;;;;;;;0.25;0.25;;;;;;;4.72;71.96;95913.78;5035465;28;20204;-77
2024/01/28 10:41:33;;;;;;;0.20;0.20;;;;;;;4.90;72.25;95920.59;5051437;28;20211;-77
2024/01/28 10:44:06;;;;;;;0.20;0.20;;;;;;;4.99;71.90;95913.66;5048842;28;20227;-75
2024/01/28 10:46:37;;;;;;;0.82;0.82;;;;;;;5.12;71.37;95910.50;5027545;28;20200;-75
2024/01/28 10:49:05;;;;;;;0.93;0.93;;;;;;;5.34;70.26;95910.31;5048523;28;20233;-75
2024/01/28 10:51:34;;;;;;;0.20;0.20;;;;;;;5.03;71.04;95912.09;5040436;28;20203;-75
2024/01/28 10:54:03;;;;;;;0.47;0.47;;;;;;;5.12;71.37;95912.38;5048862;28;20208;-74
2024/01/28 10:56:29;;;;;;;0.75;0.55;;;;;;;5.13;71.10;95901.38;5052223;28;20235;-75
2024/01/28 10:58:58;;;;;;;0.25;0.25;;;;;;;5.29;70.51;95902.25;5050480;28;20302;-75
2024/01/28 11:01:27;;;;;;;0.20;0.20;;;;;;;5.04;71.79;95916.38;5050194;28;20215;-75
2024/01/28 11:03:54;;;;;;;0.60;0.60;;;;;;;4.98;71.40;95894.06;5046227;28;20527;-74
2024/01/28 11:06:21;;;;;;;0.85;0.85;;;;;;;5.00;72.27;95908.03;5040552;28;20654;-74
2024/01/28 11:08:49;;;;;;;0.20;0.20;;;;;;;5.02;72.30;95896.22;5046349;28;20358;-74
2024/01/28 11:11:16;;;;;;;0.20;0.20;;;;;;;5.27;71.86;95893.66;5040737;28;20235;-75
2024/01/28 11:13:44;;;;;;;0.20;0.20;;;;;;;5.51;70.79;95897.50;5048470;28;20615;-75
2024/01/28 11:16:12;;;;;;;0.22;0.22;;;;;;;5.57;70.25;95893.75;5042639;28;20203;-75
2024/01/28 11:18:40;;;;;;;0.20;0.20;;;;;;;5.40;71.50;95887.78;5049809;28;20580;-76
2024/01/28 11:21:11;;;;;;;0.20;0.20;;;;;;;5.58;70.40;95884.63;5043545;28;20261;-75
2024/01/28 11:23:43;;;;;;;0.22;0.22;;;;;;;5.00;71.96;95899.16;5036975;28;20246;-76
2024/01/28 11:26:14;;;;;;;0.55;0.55;;;;;;;4.59;73.26;95900.81;5044826;28;20237;-76
2024/01/28 11:28:47;;;;;;;0.30;0.30;;;;;;;4.99;73.40;95902.91;5049518;28;20222;-76
2024/01/28 11:31:29;;;;;;;0.30;0.30;;;;;;;4.76;72.94;95893.41;5046207;28;20233;-74
2024/01/28 11:34:08;;;;;;;0.30;0.30;;;;;;;5.08;80.37;95885.22;5047366;28;20228;-73
2024/01/28 11:36:37;;;;;;;0.20;0.20;;;;;;;5.57;75.79;95888.38;5033834;28;20567;-74
2024/01/28 11:39:05;;;;;;;0.30;0.30;;;;;;;4.92;74.01;95900.44;5033574;28;20208;-75
2024/01/28 11:41:38;;;;;;;0.60;0.60;;;;;;;4.48;73.67;95893.75;5050673;28;20623;-76
2024/01/28 11:44:07;;;;;;;0.20;0.20;;;;;;;4.74;74.00;95900.09;5048230;28;20303;-75